Bronaugh, MO (64728)

9:08 PM CDT on August 22, 2014 (GMT -0500)
Nevada | Change Station
CLOSE
Current Station
Personal Weather Station
Location: Nevada, MO
Elevation: 863 ft
Nearby Weather Stations
Active Advisory: Heat Advisory

Elev 863 ft 37.82 °N, 94.33 °W | Updated 9 seconds ago

Clear
Clear
82.4 °F
Feels Like 86 °F
N
0.0
Wind Variable Wind from SE
Gusts 1.6 mph

Today
High -- | Low -- °F
--% Chance of Precip.
Yesterday
High -- | Low -- °F
Precip. -- in
6:39 AM 8:01 PM
Waning Crescent, 6% visible
Pressure 29.92 in
Visibility 10.0 miles
Clouds Clear
Heat Index 86 °F
Dew Point 70 °F
Humidity 66%
Rainfall 0.00 in
Snow Depth Not available.
UV 0 out of 12
Pollen 10.70 out of 12
Air Quality Not available.
Flu Activity Not available.
METAR KPTS 230155Z AUTO 20005KT 10SM CLR 32/23 A2992 RMK AO2 T03160231

More Conditions Fewer Conditions

Pressure 29.92 in
Visibility 10.0 miles
Clouds Clear
Heat Index 86 °F
Dew Point 70 °F
Humidity 66%
Rainfall 0.00 in
Snow Depth Not available.
UV 0 out of 12
Pollen 10.70 out of 12
Air Quality Not available.
Flu Activity Not available.
METAR KPTS 230155Z AUTO 20005KT 10SM CLR 32/23 A2992 RMK AO2 T03160231

More Conditions Fewer Conditions

10-Day Weather Forecast

Almanac

Astronomy

Aug. 22, 2014 Rise Set
Actual Time 6:39 AM CDT 8:01 PM CDT
Civil Twilight 6:12 AM CDT 8:28 PM CDT
Nautical Twilight 5:39 AM CDT 9:01 PM CDT
Astronomical Twilight 5:04 AM CDT 9:35 PM CDT
Moon 4:04 AM CDT (8/22) 6:09 PM CDT (8/22)
Length of Visible Light 14h 16m
Length of Day
13h 21m
Tomorrow will be 2m 13s shorter.
Waning Crescent, 6% of the Moon is Illuminated
Today
Waning Crescent
Aug 25
New
Sep 2
First Quarter
Sep 8
Full
Sep 15
Last Quarter

Today's Extremes

State Highs State Lows

Community

WunderPhotos

Upload Photos

1,746,348 photos uploaded!

WunderBlogs® & News

Nearby

Snow Depth

Station Depth Elevation
No new snow has been reported.

Earthquake Activity

City Distance Mag. Time & Date
No recent earthquake activity has been reported nearby.
Minimum magnitude displayed is 2.5.

Coastal Water Temperatures

Place Temperature
No Stations Reporting

Nearby Weather Stations